sensor_id;sensor_type;location;lat;lon;timestamp;P1;durP1;ratioP1;P2;durP2;ratioP2
1991;SDS011;997;48.448;8.924;2023-05-14T07:17:34;12.17;;;11.20;;
1991;SDS011;997;48.448;8.924;2023-05-14T07:20:00;13.63;;;12.20;;
1991;SDS011;997;48.448;8.924;2023-05-14T07:22:25;13.77;;;12.57;;
1991;SDS011;997;48.448;8.924;2023-05-14T07:24:51;13.67;;;12.47;;
1991;SDS011;997;48.448;8.924;2023-05-14T07:27:17;12.47;;;11.27;;
1991;SDS011;997;48.448;8.924;2023-05-14T07:29:43;13.90;;;12.70;;
1991;SDS011;997;48.448;8.924;2023-05-14T07:32:08;13.47;;;12.37;;
1991;SDS011;997;48.448;8.924;2023-05-14T07:34:34;13.50;;;12.40;;
1991;SDS011;997;48.448;8.924;2023-05-14T07:37:00;12.00;;;11.00;;
1991;SDS011;997;48.448;8.924;2023-05-14T07:39:26;12.80;;;11.70;;
1991;SDS011;997;48.448;8.924;2023-05-14T07:41:52;12.50;;;11.33;;
1991;SDS011;997;48.448;8.924;2023-05-14T07:44:20;11.23;;;10.23;;
1991;SDS011;997;48.448;8.924;2023-05-14T07:46:46;12.77;;;11.77;;
1991;SDS011;997;48.448;8.924;2023-05-14T07:49:12;12.17;;;11.17;;
1991;SDS011;997;48.448;8.924;2023-05-14T07:51:37;13.80;;;12.70;;
1991;SDS011;997;48.448;8.924;2023-05-14T07:54:03;15.13;;;13.70;;
1991;SDS011;997;48.448;8.924;2023-05-14T07:56:29;14.07;;;13.03;;
1991;SDS011;997;48.448;8.924;2023-05-14T07:58:55;12.67;;;11.57;;
1991;SDS011;997;48.448;8.924;2023-05-14T08:01:20;12.33;;;11.23;;
1991;SDS011;997;48.448;8.924;2023-05-14T08:03:46;11.07;;;10.17;;
1991;SDS011;997;48.448;8.924;2023-05-14T08:06:12;12.27;;;11.07;;
1991;SDS011;997;48.448;8.924;2023-05-14T08:08:38;11.70;;;10.70;;
1991;SDS011;997;48.448;8.924;2023-05-14T08:11:04;12.57;;;11.60;;
1991;SDS011;997;48.448;8.924;2023-05-14T08:13:30;12.43;;;11.43;;
1991;SDS011;997;48.448;8.924;2023-05-14T08:15:56;11.67;;;10.77;;
1991;SDS011;997;48.448;8.924;2023-05-14T08:18:21;12.37;;;11.23;;
1991;SDS011;997;48.448;8.924;2023-05-14T08:20:47;12.27;;;11.27;;
1991;SDS011;997;48.448;8.924;2023-05-14T08:23:12;12.70;;;11.50;;
1991;SDS011;997;48.448;8.924;2023-05-14T08:25:38;13.20;;;11.90;;
1991;SDS011;997;48.448;8.924;2023-05-14T08:28:04;13.20;;;12.00;;
1991;SDS011;997;48.448;8.924;2023-05-14T08:30:30;15.30;;;13.40;;
1991;SDS011;997;48.448;8.924;2023-05-14T08:32:56;12.37;;;11.37;;
1991;SDS011;997;48.448;8.924;2023-05-14T08:35:22;11.97;;;11.00;;
1991;SDS011;997;48.448;8.924;2023-05-14T08:37:48;12.67;;;11.47;;
1991;SDS011;997;48.448;8.924;2023-05-14T08:40:14;11.57;;;10.57;;
1991;SDS011;997;48.448;8.924;2023-05-14T08:42:40;13.53;;;12.50;;
1991;SDS011;997;48.448;8.924;2023-05-14T08:45:12;13.10;;;11.97;;
1991;SDS011;997;48.448;8.924;2023-05-14T08:47:48;11.80;;;10.80;;
1991;SDS011;997;48.448;8.924;2023-05-14T08:50:15;11.50;;;10.40;;
1991;SDS011;997;48.448;8.924;2023-05-14T08:52:41;13.00;;;11.57;;
1991;SDS011;997;48.448;8.924;2023-05-14T08:55:07;12.03;;;10.87;;
1991;SDS011;997;48.448;8.924;2023-05-14T08:57:33;13.00;;;11.83;;
1991;SDS011;997;48.448;8.924;2023-05-14T09:00:00;12.77;;;11.70;;
1991;SDS011;997;48.448;8.924;2023-05-14T09:02:31;12.63;;;11.60;;
1991;SDS011;997;48.448;8.924;2023-05-14T09:04:58;11.97;;;10.90;;
1991;SDS011;997;48.448;8.924;2023-05-14T09:07:26;11.67;;;10.50;;
1991;SDS011;997;48.448;8.924;2023-05-14T09:09:52;10.47;;;9.63;;
1991;SDS011;997;48.448;8.924;2023-05-14T09:12:19;11.10;;;10.20;;
1991;SDS011;997;48.448;8.924;2023-05-14T09:14:46;11.57;;;10.57;;
1991;SDS011;997;48.448;8.924;2023-05-14T09:17:13;11.57;;;10.53;;
1991;SDS011;997;48.448;8.924;2023-05-14T09:19:39;12.03;;;10.87;;
1991;SDS011;997;48.448;8.924;2023-05-14T09:22:10;11.50;;;10.50;;
1991;SDS011;997;48.448;8.924;2023-05-14T09:24:37;11.10;;;10.20;;
1991;SDS011;997;48.448;8.924;2023-05-14T09:27:03;11.63;;;10.63;;
1991;SDS011;997;48.448;8.924;2023-05-14T09:29:30;12.53;;;11.53;;
1991;SDS011;997;48.448;8.924;2023-05-14T09:31:57;10.30;;;9.40;;
1991;SDS011;997;48.448;8.924;2023-05-14T09:34:24;12.60;;;11.50;;
1991;SDS011;997;48.448;8.924;2023-05-14T09:36:55;11.73;;;10.73;;
1991;SDS011;997;48.448;8.924;2023-05-14T09:39:22;11.13;;;10.23;;
1991;SDS011;997;48.448;8.924;2023-05-14T09:41:49;10.70;;;9.90;;
1991;SDS011;997;48.448;8.924;2023-05-14T09:44:16;11.73;;;10.73;;
1991;SDS011;997;48.448;8.924;2023-05-14T09:46:42;11.40;;;10.40;;
1991;SDS011;997;48.448;8.924;2023-05-14T09:49:08;11.40;;;10.40;;
1991;SDS011;997;48.448;8.924;2023-05-14T09:51:34;10.43;;;9.53;;
1991;SDS011;997;48.448;8.924;2023-05-14T09:54:01;11.83;;;10.77;;
1991;SDS011;997;48.448;8.924;2023-05-14T09:56:28;9.40;;;8.70;;
1991;SDS011;997;48.448;8.924;2023-05-14T09:58:54;9.90;;;9.00;;
1991;SDS011;997;48.448;8.924;2023-05-14T10:01:20;9.73;;;8.93;;
1991;SDS011;997;48.448;8.924;2023-05-14T10:03:47;12.90;;;9.73;;
1991;SDS011;997;48.448;8.924;2023-05-14T10:06:14;11.73;;;9.77;;
1991;SDS011;997;48.448;8.924;2023-05-14T10:08:43;10.70;;;9.70;;
1991;SDS011;997;48.448;8.924;2023-05-14T10:11:13;10.50;;;9.70;;
1991;SDS011;997;48.448;8.924;2023-05-14T10:13:45;10.30;;;9.40;;
1991;SDS011;997;48.448;8.924;2023-05-14T10:16:42;10.23;;;9.00;;
1991;SDS011;997;48.448;8.924;2023-05-14T10:19:16;9.87;;;9.10;;
1991;SDS011;997;48.448;8.924;2023-05-14T10:21:46;10.00;;;9.20;;
1991;SDS011;997;48.448;8.924;2023-05-14T10:24:17;9.37;;;8.67;;
1991;SDS011;997;48.448;8.924;2023-05-14T10:26:43;11.43;;;9.17;;
1991;SDS011;997;48.448;8.924;2023-05-14T10:29:09;10.67;;;9.70;;
1991;SDS011;997;48.448;8.924;2023-05-14T10:31:51;10.03;;;9.23;;
1991;SDS011;997;48.448;8.924;2023-05-14T10:34:31;11.30;;;10.30;;
1991;SDS011;997;48.448;8.924;2023-05-14T10:37:10;10.27;;;9.37;;
1991;SDS011;997;48.448;8.924;2023-05-14T10:42:17;9.73;;;9.03;;
1991;SDS011;997;48.448;8.924;2023-05-14T10:44:52;9.13;;;8.20;;
1991;SDS011;997;48.448;8.924;2023-05-14T10:47:25;8.23;;;7.63;;
1991;SDS011;997;48.448;8.924;2023-05-14T10:49:57;8.83;;;8.13;;
1991;SDS011;997;48.448;8.924;2023-05-14T10:52:25;9.33;;;8.53;;
1991;SDS011;997;48.448;8.924;2023-05-14T10:54:51;8.80;;;8.10;;
1991;SDS011;997;48.448;8.924;2023-05-14T10:57:18;8.20;;;7.50;;
1991;SDS011;997;48.448;8.924;2023-05-14T10:59:51;8.70;;;7.90;;
1991;SDS011;997;48.448;8.924;2023-05-14T11:02:40;7.97;;;7.30;;
1991;SDS011;997;48.448;8.924;2023-05-14T11:05:06;7.57;;;6.97;;
1991;SDS011;997;48.448;8.924;2023-05-14T11:07:38;6.80;;;6.20;;
1991;SDS011;997;48.448;8.924;2023-05-14T11:10:06;5.70;;;5.30;;
1991;SDS011;997;48.448;8.924;2023-05-14T11:12:34;6.30;;;5.70;;
1991;SDS011;997;48.448;8.924;2023-05-14T11:15:02;6.37;;;5.87;;
1991;SDS011;997;48.448;8.924;2023-05-14T11:17:30;5.83;;;5.30;;
1991;SDS011;997;48.448;8.924;2023-05-14T11:19:56;5.43;;;5.03;;
1991;SDS011;997;48.448;8.924;2023-05-14T11:22:23;6.37;;;5.97;;
1991;SDS011;997;48.448;8.924;2023-05-14T11:24:49;6.00;;;5.50;;
1991;SDS011;997;48.448;8.924;2023-05-14T11:27:16;5.23;;;4.77;;
1991;SDS011;997;48.448;8.924;2023-05-14T11:29:45;6.80;;;6.30;;
1991;SDS011;997;48.448;8.924;2023-05-14T11:32:15;7.07;;;6.47;;
1991;SDS011;997;48.448;8.924;2023-05-14T11:34:42;6.97;;;6.03;;
1991;SDS011;997;48.448;8.924;2023-05-14T11:37:12;7.97;;;7.37;;
1991;SDS011;997;48.448;8.924;2023-05-14T11:39:44;7.03;;;6.47;;
1991;SDS011;997;48.448;8.924;2023-05-14T11:42:15;7.47;;;6.87;;
1991;SDS011;997;48.448;8.924;2023-05-14T11:44:43;7.00;;;6.40;;
1991;SDS011;997;48.448;8.924;2023-05-14T11:47:10;7.80;;;6.90;;
1991;SDS011;997;48.448;8.924;2023-05-14T11:49:36;8.23;;;7.33;;
1991;SDS011;997;48.448;8.924;2023-05-14T11:52:03;7.20;;;6.57;;
1991;SDS011;997;48.448;8.924;2023-05-14T11:54:31;6.20;;;5.50;;
1991;SDS011;997;48.448;8.924;2023-05-14T11:56:58;6.17;;;5.67;;
1991;SDS011;997;48.448;8.924;2023-05-14T11:59:26;5.93;;;5.47;;
1991;SDS011;997;48.448;8.924;2023-05-14T12:01:53;5.10;;;4.80;;
1991;SDS011;997;48.448;8.924;2023-05-14T12:04:25;6.70;;;6.20;;
1991;SDS011;997;48.448;8.924;2023-05-14T12:06:52;6.60;;;6.10;;
1991;SDS011;997;48.448;8.924;2023-05-14T12:09:21;6.20;;;5.80;;
1991;SDS011;997;48.448;8.924;2023-05-14T12:11:48;6.83;;;6.23;;
1991;SDS011;997;48.448;8.924;2023-05-14T12:14:15;7.30;;;6.70;;
1991;SDS011;997;48.448;8.924;2023-05-14T12:16:46;8.90;;;8.20;;
1991;SDS011;997;48.448;8.924;2023-05-14T12:19:18;9.50;;;8.70;;
1991;SDS011;997;48.448;8.924;2023-05-14T12:21:47;7.87;;;7.27;;
1991;SDS011;997;48.448;8.924;2023-05-14T12:24:16;11.43;;;10.43;;
1991;SDS011;997;48.448;8.924;2023-05-14T12:26:44;9.90;;;9.00;;
1991;SDS011;997;48.448;8.924;2023-05-14T12:29:12;7.83;;;7.23;;
1991;SDS011;997;48.448;8.924;2023-05-14T12:31:43;7.50;;;6.83;;
1991;SDS011;997;48.448;8.924;2023-05-14T12:34:13;7.57;;;6.97;;
1991;SDS011;997;48.448;8.924;2023-05-14T12:36:39;6.67;;;6.10;;
1991;SDS011;997;48.448;8.924;2023-05-14T12:39:05;6.90;;;6.30;;
1991;SDS011;997;48.448;8.924;2023-05-14T12:41:31;6.93;;;6.33;;
1991;SDS011;997;48.448;8.924;2023-05-14T12:43:58;6.23;;;5.63;;
1991;SDS011;997;48.448;8.924;2023-05-14T12:49:21;5.40;;;5.00;;
1991;SDS011;997;48.448;8.924;2023-05-14T12:51:47;5.40;;;5.10;;
1991;SDS011;997;48.448;8.924;2023-05-14T12:54:13;5.60;;;5.20;;
1991;SDS011;997;48.448;8.924;2023-05-14T12:56:40;4.60;;;4.30;;
1991;SDS011;997;48.448;8.924;2023-05-14T12:59:08;5.33;;;4.93;;
1991;SDS011;997;48.448;8.924;2023-05-14T13:01:37;6.10;;;5.60;;
1991;SDS011;997;48.448;8.924;2023-05-14T13:04:04;4.77;;;4.47;;
1991;SDS011;997;48.448;8.924;2023-05-14T13:06:30;4.87;;;4.47;;
1991;SDS011;997;48.448;8.924;2023-05-14T13:08:56;5.53;;;5.13;;
1991;SDS011;997;48.448;8.924;2023-05-14T13:11:25;6.23;;;5.70;;
1991;SDS011;997;48.448;8.924;2023-05-14T13:13:53;5.70;;;5.20;;
1991;SDS011;997;48.448;8.924;2023-05-14T13:16:19;5.63;;;5.13;;
1991;SDS011;997;48.448;8.924;2023-05-14T13:18:45;6.03;;;5.57;;
1991;SDS011;997;48.448;8.924;2023-05-14T13:21:11;5.33;;;4.83;;
1991;SDS011;997;48.448;8.924;2023-05-14T13:23:37;7.03;;;5.83;;
1991;SDS011;997;48.448;8.924;2023-05-14T13:26:02;5.73;;;5.10;;
1991;SDS011;997;48.448;8.924;2023-05-14T13:28:28;6.00;;;5.27;;
1991;SDS011;997;48.448;8.924;2023-05-14T13:31:04;7.37;;;6.37;;
1991;SDS011;997;48.448;8.924;2023-05-14T13:33:41;7.37;;;6.10;;
1991;SDS011;997;48.448;8.924;2023-05-14T13:36:09;9.13;;;8.00;;
1991;SDS011;997;48.448;8.924;2023-05-14T13:38:37;14.90;;;8.43;;
1991;SDS011;997;48.448;8.924;2023-05-14T13:41:03;10.07;;;9.03;;
1991;SDS011;997;48.448;8.924;2023-05-14T13:43:33;9.37;;;8.43;;
